sensor_id;sensor_type;location;lat;lon;timestamp;P1;durP1;ratioP1;P2;durP2;ratioP2
42194;SDS011;27863;49.440;11.102;2023-03-01T00:01:37;10.57;;;9.50;;
42194;SDS011;27863;49.440;11.102;2023-03-01T00:04:38;11.03;;;9.90;;
42194;SDS011;27863;49.440;11.102;2023-03-01T00:07:42;11.13;;;9.97;;
42194;SDS011;27863;49.440;11.102;2023-03-01T00:10:47;11.67;;;10.47;;
42194;SDS011;27863;49.440;11.102;2023-03-01T00:13:48;11.47;;;10.03;;
42194;SDS011;27863;49.440;11.102;2023-03-01T00:16:50;11.53;;;10.43;;
42194;SDS011;27863;49.440;11.102;2023-03-01T00:19:51;12.53;;;10.50;;
42194;SDS011;27863;49.440;11.102;2023-03-01T00:22:52;12.30;;;10.43;;
42194;SDS011;27863;49.440;11.102;2023-03-01T00:25:53;10.63;;;9.53;;
42194;SDS011;27863;49.440;11.102;2023-03-01T00:28:54;11.27;;;9.93;;
42194;SDS011;27863;49.440;11.102;2023-03-01T00:31:55;11.13;;;9.93;;
42194;SDS011;27863;49.440;11.102;2023-03-01T00:34:56;15.77;;;9.20;;
42194;SDS011;27863;49.440;11.102;2023-03-01T00:37:58;11.23;;;10.07;;
42194;SDS011;27863;49.440;11.102;2023-03-01T00:41:08;11.33;;;10.20;;
42194;SDS011;27863;49.440;11.102;2023-03-01T00:44:11;19.27;;;10.33;;
42194;SDS011;27863;49.440;11.102;2023-03-01T00:47:13;12.23;;;10.40;;
42194;SDS011;27863;49.440;11.102;2023-03-01T00:50:14;13.53;;;9.70;;
42194;SDS011;27863;49.440;11.102;2023-03-01T00:53:14;11.83;;;9.53;;
42194;SDS011;27863;49.440;11.102;2023-03-01T00:56:15;13.60;;;10.40;;
42194;SDS011;27863;49.440;11.102;2023-03-01T00:59:17;12.53;;;11.23;;
42194;SDS011;27863;49.440;11.102;2023-03-01T01:02:18;12.67;;;10.30;;
42194;SDS011;27863;49.440;11.102;2023-03-01T01:05:22;12.60;;;10.47;;
42194;SDS011;27863;49.440;11.102;2023-03-01T01:08:23;15.57;;;10.77;;
42194;SDS011;27863;49.440;11.102;2023-03-01T01:11:24;11.53;;;10.13;;
42194;SDS011;27863;49.440;11.102;2023-03-01T01:14:26;15.13;;;11.80;;
42194;SDS011;27863;49.440;11.102;2023-03-01T01:17:28;16.40;;;11.83;;
42194;SDS011;27863;49.440;11.102;2023-03-01T01:20:29;13.30;;;11.23;;
42194;SDS011;27863;49.440;11.102;2023-03-01T01:23:29;14.57;;;11.00;;
42194;SDS011;27863;49.440;11.102;2023-03-01T01:26:31;10.80;;;9.67;;
42194;SDS011;27863;49.440;11.102;2023-03-01T01:29:33;10.83;;;9.73;;
42194;SDS011;27863;49.440;11.102;2023-03-01T01:32:33;14.83;;;11.13;;
42194;SDS011;27863;49.440;11.102;2023-03-01T01:35:34;12.43;;;10.63;;
42194;SDS011;27863;49.440;11.102;2023-03-01T01:38:35;12.37;;;11.17;;
42194;SDS011;27863;49.440;11.102;2023-03-01T01:41:36;12.63;;;10.37;;
42194;SDS011;27863;49.440;11.102;2023-03-01T01:44:39;14.60;;;10.43;;
42194;SDS011;27863;49.440;11.102;2023-03-01T01:47:42;12.20;;;10.47;;
42194;SDS011;27863;49.440;11.102;2023-03-01T01:50:43;12.73;;;10.17;;
42194;SDS011;27863;49.440;11.102;2023-03-01T01:53:45;13.57;;;11.57;;
42194;SDS011;27863;49.440;11.102;2023-03-01T01:56:52;10.67;;;9.57;;
42194;SDS011;27863;49.440;11.102;2023-03-01T01:59:58;12.50;;;11.20;;
42194;SDS011;27863;49.440;11.102;2023-03-01T02:03:14;12.40;;;10.93;;
42194;SDS011;27863;49.440;11.102;2023-03-01T02:06:26;12.43;;;10.93;;
42194;SDS011;27863;49.440;11.102;2023-03-01T02:09:29;19.43;;;12.13;;
42194;SDS011;27863;49.440;11.102;2023-03-01T02:12:30;12.23;;;10.97;;
42194;SDS011;27863;49.440;11.102;2023-03-01T02:15:36;13.27;;;11.00;;
42194;SDS011;27863;49.440;11.102;2023-03-01T02:18:38;13.00;;;11.47;;
42194;SDS011;27863;49.440;11.102;2023-03-01T02:28:52;13.17;;;11.27;;
42194;SDS011;27863;49.440;11.102;2023-03-01T02:31:45;17.20;;;11.77;;
42194;SDS011;27863;49.440;11.102;2023-03-01T02:34:46;12.27;;;10.93;;
42194;SDS011;27863;49.440;11.102;2023-03-01T02:37:47;13.53;;;11.13;;
42194;SDS011;27863;49.440;11.102;2023-03-01T02:40:48;12.30;;;10.73;;
42194;SDS011;27863;49.440;11.102;2023-03-01T02:43:51;20.97;;;11.97;;
42194;SDS011;27863;49.440;11.102;2023-03-01T02:46:53;13.30;;;11.00;;
42194;SDS011;27863;49.440;11.102;2023-03-01T02:49:54;12.63;;;10.83;;
42194;SDS011;27863;49.440;11.102;2023-03-01T02:53:09;11.80;;;10.47;;
42194;SDS011;27863;49.440;11.102;2023-03-01T02:56:12;10.60;;;9.40;;
42194;SDS011;27863;49.440;11.102;2023-03-01T02:59:15;12.43;;;9.77;;
42194;SDS011;27863;49.440;11.102;2023-03-01T03:02:18;14.13;;;10.13;;
42194;SDS011;27863;49.440;11.102;2023-03-01T03:05:51;11.83;;;10.60;;
42194;SDS011;27863;49.440;11.102;2023-03-01T03:08:53;13.73;;;11.23;;
42194;SDS011;27863;49.440;11.102;2023-03-01T03:11:53;13.10;;;10.83;;
42194;SDS011;27863;49.440;11.102;2023-03-01T03:14:54;13.67;;;11.10;;
42194;SDS011;27863;49.440;11.102;2023-03-01T03:17:55;10.73;;;9.70;;
42194;SDS011;27863;49.440;11.102;2023-03-01T03:20:56;13.77;;;10.60;;
42194;SDS011;27863;49.440;11.102;2023-03-01T03:23:56;11.30;;;10.17;;
42194;SDS011;27863;49.440;11.102;2023-03-01T03:26:58;13.57;;;11.70;;
42194;SDS011;27863;49.440;11.102;2023-03-01T03:29:59;15.77;;;11.23;;
42194;SDS011;27863;49.440;11.102;2023-03-01T03:32:59;15.20;;;12.77;;
42194;SDS011;27863;49.440;11.102;2023-03-01T03:36:00;13.87;;;11.07;;
42194;SDS011;27863;49.440;11.102;2023-03-01T03:39:01;12.07;;;10.77;;
42194;SDS011;27863;49.440;11.102;2023-03-01T03:42:02;12.10;;;10.43;;
42194;SDS011;27863;49.440;11.102;2023-03-01T03:45:03;13.63;;;11.10;;
42194;SDS011;27863;49.440;11.102;2023-03-01T03:48:05;14.90;;;10.87;;
42194;SDS011;27863;49.440;11.102;2023-03-01T03:51:12;12.90;;;11.47;;
42194;SDS011;27863;49.440;11.102;2023-03-01T03:54:13;13.70;;;11.50;;
42194;SDS011;27863;49.440;11.102;2023-03-01T03:57:13;12.53;;;10.87;;
42194;SDS011;27863;49.440;11.102;2023-03-01T04:00:14;12.07;;;10.90;;
42194;SDS011;27863;49.440;11.102;2023-03-01T04:03:15;11.80;;;9.87;;
42194;SDS011;27863;49.440;11.102;2023-03-01T04:06:18;15.43;;;10.40;;
42194;SDS011;27863;49.440;11.102;2023-03-01T04:09:19;13.77;;;10.83;;
42194;SDS011;27863;49.440;11.102;2023-03-01T04:12:19;11.47;;;10.07;;
42194;SDS011;27863;49.440;11.102;2023-03-01T04:15:23;14.37;;;11.20;;
42194;SDS011;27863;49.440;11.102;2023-03-01T04:18:26;12.63;;;9.37;;
42194;SDS011;27863;49.440;11.102;2023-03-01T04:21:26;14.50;;;11.20;;
42194;SDS011;27863;49.440;11.102;2023-03-01T04:24:27;17.53;;;11.17;;
42194;SDS011;27863;49.440;11.102;2023-03-01T04:27:29;12.57;;;11.27;;
42194;SDS011;27863;49.440;11.102;2023-03-01T04:30:30;11.57;;;9.53;;
42194;SDS011;27863;49.440;11.102;2023-03-01T04:33:35;14.63;;;10.93;;
42194;SDS011;27863;49.440;11.102;2023-03-01T04:36:36;15.73;;;11.33;;
42194;SDS011;27863;49.440;11.102;2023-03-01T04:39:37;14.30;;;12.40;;
42194;SDS011;27863;49.440;11.102;2023-03-01T04:42:45;12.43;;;10.90;;
42194;SDS011;27863;49.440;11.102;2023-03-01T04:45:45;13.23;;;10.93;;
42194;SDS011;27863;49.440;11.102;2023-03-01T04:48:48;10.63;;;9.53;;
42194;SDS011;27863;49.440;11.102;2023-03-01T04:51:49;12.90;;;10.97;;
42194;SDS011;27863;49.440;11.102;2023-03-01T04:54:50;11.57;;;10.40;;
42194;SDS011;27863;49.440;11.102;2023-03-01T04:57:51;13.60;;;10.40;;
42194;SDS011;27863;49.440;11.102;2023-03-01T05:00:53;11.67;;;10.47;;
42194;SDS011;27863;49.440;11.102;2023-03-01T05:03:57;13.83;;;10.90;;
42194;SDS011;27863;49.440;11.102;2023-03-01T05:07:02;11.03;;;9.93;;
42194;SDS011;27863;49.440;11.102;2023-03-01T05:10:03;11.27;;;9.90;;
42194;SDS011;27863;49.440;11.102;2023-03-01T05:13:04;10.37;;;9.27;;
42194;SDS011;27863;49.440;11.102;2023-03-01T05:16:05;11.67;;;9.70;;
42194;SDS011;27863;49.440;11.102;2023-03-01T05:19:06;13.20;;;10.63;;
42194;SDS011;27863;49.440;11.102;2023-03-01T05:22:15;11.67;;;10.07;;
42194;SDS011;27863;49.440;11.102;2023-03-01T05:25:15;11.97;;;10.03;;
42194;SDS011;27863;49.440;11.102;2023-03-01T05:28:16;14.27;;;10.77;;
42194;SDS011;27863;49.440;11.102;2023-03-01T05:31:18;12.17;;;10.90;;
42194;SDS011;27863;49.440;11.102;2023-03-01T05:34:19;16.50;;;11.27;;
42194;SDS011;27863;49.440;11.102;2023-03-01T05:37:23;14.90;;;10.47;;
42194;SDS011;27863;49.440;11.102;2023-03-01T05:40:24;11.00;;;9.73;;
42194;SDS011;27863;49.440;11.102;2023-03-01T05:43:24;16.33;;;10.63;;
42194;SDS011;27863;49.440;11.102;2023-03-01T05:46:25;11.87;;;10.63;;
42194;SDS011;27863;49.440;11.102;2023-03-01T05:49:26;16.37;;;11.63;;
42194;SDS011;27863;49.440;11.102;2023-03-01T05:52:27;12.63;;;11.33;;
42194;SDS011;27863;49.440;11.102;2023-03-01T05:55:28;13.17;;;10.20;;
42194;SDS011;27863;49.440;11.102;2023-03-01T05:58:29;12.77;;;11.37;;
42194;SDS011;27863;49.440;11.102;2023-03-01T06:01:31;13.30;;;11.10;;
42194;SDS011;27863;49.440;11.102;2023-03-01T06:04:32;12.60;;;10.87;;
42194;SDS011;27863;49.440;11.102;2023-03-01T06:07:33;12.77;;;11.47;;
42194;SDS011;27863;49.440;11.102;2023-03-01T06:10:35;13.80;;;11.43;;
42194;SDS011;27863;49.440;11.102;2023-03-01T06:13:36;12.70;;;10.23;;
42194;SDS011;27863;49.440;11.102;2023-03-01T06:16:37;14.63;;;12.43;;
42194;SDS011;27863;49.440;11.102;2023-03-01T06:19:37;12.27;;;10.43;;
42194;SDS011;27863;49.440;11.102;2023-03-01T06:22:38;13.30;;;11.57;;
42194;SDS011;27863;49.440;11.102;2023-03-01T06:25:39;13.77;;;10.97;;
42194;SDS011;27863;49.440;11.102;2023-03-01T06:28:40;13.27;;;11.50;;
42194;SDS011;27863;49.440;11.102;2023-03-01T06:31:41;13.70;;;12.13;;
42194;SDS011;27863;49.440;11.102;2023-03-01T06:34:41;13.13;;;10.63;;
42194;SDS011;27863;49.440;11.102;2023-03-01T06:37:42;15.90;;;12.00;;
42194;SDS011;27863;49.440;11.102;2023-03-01T06:40:42;14.03;;;10.33;;
42194;SDS011;27863;49.440;11.102;2023-03-01T06:43:43;24.40;;;10.87;;
42194;SDS011;27863;49.440;11.102;2023-03-01T06:46:44;13.10;;;11.80;;
42194;SDS011;27863;49.440;11.102;2023-03-01T06:49:47;20.73;;;11.77;;
42194;SDS011;27863;49.440;11.102;2023-03-01T06:52:48;14.87;;;12.43;;
42194;SDS011;27863;49.440;11.102;2023-03-01T06:55:56;12.03;;;10.77;;
42194;SDS011;27863;49.440;11.102;2023-03-01T06:58:57;14.00;;;11.27;;
42194;SDS011;27863;49.440;11.102;2023-03-01T07:01:58;15.13;;;12.17;;
42194;SDS011;27863;49.440;11.102;2023-03-01T07:04:58;15.23;;;12.47;;
42194;SDS011;27863;49.440;11.102;2023-03-01T07:07:59;12.87;;;11.53;;
42194;SDS011;27863;49.440;11.102;2023-03-01T07:10:59;14.33;;;12.40;;
42194;SDS011;27863;49.440;11.102;2023-03-01T07:14:02;14.47;;;12.07;;
42194;SDS011;27863;49.440;11.102;2023-03-01T07:17:03;14.60;;;12.97;;
42194;SDS011;27863;49.440;11.102;2023-03-01T07:20:07;16.90;;;12.60;;
42194;SDS011;27863;49.440;11.102;2023-03-01T07:23:09;16.70;;;12.27;;
42194;SDS011;27863;49.440;11.102;2023-03-01T07:26:09;12.93;;;11.73;;
42194;SDS011;27863;49.440;11.102;2023-03-01T07:29:10;13.87;;;12.43;;
42194;SDS011;27863;49.440;11.102;2023-03-01T07:32:12;18.03;;;13.20;;
42194;SDS011;27863;49.440;11.102;2023-03-01T07:35:13;22.20;;;12.83;;
42194;SDS011;27863;49.440;11.102;2023-03-01T07:38:14;13.55;;;12.15;;
42194;SDS011;27863;49.440;11.102;2023-03-01T07:41:15;15.40;;;12.30;;
42194;SDS011;27863;49.440;11.102;2023-03-01T07:44:17;13.10;;;11.75;;
42194;SDS011;27863;49.440;11.102;2023-03-01T07:47:17;49.25;;;15.73;;
42194;SDS011;27863;49.440;11.102;2023-03-01T07:50:18;13.98;;;12.48;;
42194;SDS011;27863;49.440;11.102;2023-03-01T07:53:19;16.90;;;12.88;;
42194;SDS011;27863;49.440;11.102;2023-03-01T07:56:19;14.45;;;13.05;;
42194;SDS011;27863;49.440;11.102;2023-03-01T07:59:22;14.32;;;12.70;;
42194;SDS011;27863;49.440;11.102;2023-03-01T08:02:28;14.35;;;12.55;;
42194;SDS011;27863;49.440;11.102;2023-03-01T08:05:29;13.57;;;12.40;;
42194;SDS011;27863;49.440;11.102;2023-03-01T08:08:31;16.33;;;12.35;;
42194;SDS011;27863;49.440;11.102;2023-03-01T08:12:15;14.65;;;13.25;;
42194;SDS011;27863;49.440;11.102;2023-03-01T08:15:20;13.65;;;12.27;;
42194;SDS011;27863;49.440;11.102;2023-03-01T08:18:24;15.25;;;13.48;;
42194;SDS011;27863;49.440;11.102;2023-03-01T08:21:25;15.20;;;13.80;;
42194;SDS011;27863;49.440;11.102;2023-03-01T08:24:27;18.20;;;13.68;;
42194;SDS011;27863;49.440;11.102;2023-03-01T08:27:30;14.32;;;13.13;;
42194;SDS011;27863;49.440;11.102;2023-03-01T08:30:31;13.88;;;12.65;;
42194;SDS011;27863;49.440;11.102;2023-03-01T08:33:33;14.43;;;12.55;;
42194;SDS011;27863;49.440;11.102;2023-03-01T08:36:35;12.82;;;11.77;;
42194;SDS011;27863;49.440;11.102;2023-03-01T08:39:38;16.10;;;13.52;;
42194;SDS011;27863;49.440;11.102;2023-03-01T08:42:42;13.18;;;11.98;;
42194;SDS011;27863;49.440;11.102;2023-03-01T08:45:43;14.07;;;12.45;;
42194;SDS011;27863;49.440;11.102;2023-03-01T08:48:43;15.15;;;13.80;;
42194;SDS011;27863;49.440;11.102;2023-03-01T08:51:44;13.10;;;11.90;;
42194;SDS011;27863;49.440;11.102;2023-03-01T08:54:47;12.88;;;11.60;;
42194;SDS011;27863;49.440;11.102;2023-03-01T08:57:48;13.27;;;12.07;;
42194;SDS011;27863;49.440;11.102;2023-03-01T09:00:50;13.77;;;12.47;;
42194;SDS011;27863;49.440;11.102;2023-03-01T09:03:51;13.17;;;11.80;;
42194;SDS011;27863;49.440;11.102;2023-03-01T09:06:52;14.03;;;12.53;;
42194;SDS011;27863;49.440;11.102;2023-03-01T09:09:52;15.03;;;11.93;;
42194;SDS011;27863;49.440;11.102;2023-03-01T09:12:54;15.80;;;14.00;;
42194;SDS011;27863;49.440;11.102;2023-03-01T09:15:54;13.30;;;11.97;;
42194;SDS011;27863;49.440;11.102;2023-03-01T09:18:55;13.50;;;12.17;;
42194;SDS011;27863;49.440;11.102;2023-03-01T09:21:55;13.50;;;12.17;;
42194;SDS011;27863;49.440;11.102;2023-03-01T09:24:58;13.63;;;11.03;;
42194;SDS011;27863;49.440;11.102;2023-03-01T09:27:59;12.83;;;11.60;;
42194;SDS011;27863;49.440;11.102;2023-03-01T09:31:00;14.43;;;12.30;;
42194;SDS011;27863;49.440;11.102;2023-03-01T09:34:01;16.57;;;12.23;;
42194;SDS011;27863;49.440;11.102;2023-03-01T09:37:02;12.57;;;11.27;;
42194;SDS011;27863;49.440;11.102;2023-03-01T09:40:03;14.07;;;12.57;;
42194;SDS011;27863;49.440;11.102;2023-03-01T09:43:13;12.60;;;11.30;;
42194;SDS011;27863;49.440;11.102;2023-03-01T09:46:20;14.60;;;11.67;;
42194;SDS011;27863;49.440;11.102;2023-03-01T09:49:23;12.10;;;10.80;;
42194;SDS011;27863;49.440;11.102;2023-03-01T09:55:38;13.10;;;11.70;;
42194;SDS011;27863;49.440;11.102;2023-03-01T09:59:03;12.33;;;10.93;;
42194;SDS011;27863;49.440;11.102;2023-03-01T10:02:30;14.67;;;11.30;;
42194;SDS011;27863;49.440;11.102;2023-03-01T10:05:44;12.73;;;11.27;;
42194;SDS011;27863;49.440;11.102;2023-03-01T10:08:54;13.73;;;11.23;;
42194;SDS011;27863;49.440;11.102;2023-03-01T10:11:57;12.73;;;11.43;;
42194;SDS011;27863;49.440;11.102;2023-03-01T10:15:01;15.73;;;12.63;;
42194;SDS011;27863;49.440;11.102;2023-03-01T10:18:12;14.97;;;13.33;;
42194;SDS011;27863;49.440;11.102;2023-03-01T10:21:17;14.67;;;13.13;;
42194;SDS011;27863;49.440;11.102;2023-03-01T10:24:19;15.13;;;12.87;;
42194;SDS011;27863;49.440;11.102;2023-03-01T10:28:05;14.33;;;12.83;;
42194;SDS011;27863;49.440;11.102;2023-03-01T10:30:51;16.70;;;11.87;;
42194;SDS011;27863;49.440;11.102;2023-03-01T10:34:09;14.57;;;13.07;;
42194;SDS011;27863;49.440;11.102;2023-03-01T10:37:18;16.20;;;12.73;;
42194;SDS011;27863;49.440;11.102;2023-03-01T10:40:22;15.17;;;13.67;;
42194;SDS011;27863;49.440;11.102;2023-03-01T10:43:26;12.50;;;11.30;;
42194;SDS011;27863;49.440;11.102;2023-03-01T10:46:36;16.20;;;12.53;;
42194;SDS011;27863;49.440;11.102;2023-03-01T10:49:37;18.13;;;12.93;;
42194;SDS011;27863;49.440;11.102;2023-03-01T10:52:40;13.67;;;12.27;;
42194;SDS011;27863;49.440;11.102;2023-03-01T10:55:42;14.67;;;13.13;;
42194;SDS011;27863;49.440;11.102;2023-03-01T10:59:00;16.67;;;11.70;;
42194;SDS011;27863;49.440;11.102;2023-03-01T11:05:22;18.30;;;12.77;;
42194;SDS011;27863;49.440;11.102;2023-03-01T11:11:38;15.13;;;13.63;;
42194;SDS011;27863;49.440;11.102;2023-03-01T11:14:39;13.63;;;12.30;;
42194;SDS011;27863;49.440;11.102;2023-03-01T11:17:47;16.20;;;12.37;;
42194;SDS011;27863;49.440;11.102;2023-03-01T11:20:51;16.67;;;12.80;;
42194;SDS011;27863;49.440;11.102;2023-03-01T11:23:53;13.50;;;12.07;;
42194;SDS011;27863;49.440;11.102;2023-03-01T11:26:54;13.17;;;11.80;;
42194;SDS011;27863;49.440;11.102;2023-03-01T11:36:35;12.90;;;11.67;;
42194;SDS011;27863;49.440;11.102;2023-03-01T11:43:25;11.70;;;10.57;;
42194;SDS011;27863;49.440;11.102;2023-03-01T11:49:48;13.13;;;11.73;;
42194;SDS011;27863;49.440;11.102;2023-03-01T11:56:32;13.50;;;11.47;;
42194;SDS011;27863;49.440;11.102;2023-03-01T12:06:35;12.57;;;11.13;;
42194;SDS011;27863;49.440;11.102;2023-03-01T12:10:07;11.63;;;10.53;;
42194;SDS011;27863;49.440;11.102;2023-03-01T12:13:27;11.73;;;10.60;;
42194;SDS011;27863;49.440;11.102;2023-03-01T12:36:49;14.30;;;10.37;;
42194;SDS011;27863;49.440;11.102;2023-03-01T12:43:22;11.60;;;10.40;;
42194;SDS011;27863;49.440;11.102;2023-03-01T12:50:04;11.23;;;9.83;;
42194;SDS011;27863;49.440;11.102;2023-03-01T12:53:24;14.60;;;10.90;;
42194;SDS011;27863;49.440;11.102;2023-03-01T12:56:28;10.63;;;9.63;;
42194;SDS011;27863;49.440;11.102;2023-03-01T12:59:36;12.13;;;10.67;;
42194;SDS011;27863;49.440;11.102;2023-03-01T13:16:19;10.53;;;9.53;;
42194;SDS011;27863;49.440;11.102;2023-03-01T13:19:26;10.07;;;9.07;;
42194;SDS011;27863;49.440;11.102;2023-03-01T13:22:32;10.27;;;9.27;;
42194;SDS011;27863;49.440;11.102;2023-03-01T13:25:33;10.40;;;9.40;;
42194;SDS011;27863;49.440;11.102;2023-03-01T13:34:40;10.03;;;8.80;;
42194;SDS011;27863;49.440;11.102;2023-03-01T13:37:43;12.63;;;9.00;;
42194;SDS011;27863;49.440;11.102;2023-03-01T13:43:45;11.20;;;10.00;;
42194;SDS011;27863;49.440;11.102;2023-03-01T13:46:47;10.97;;;9.13;;
42194;SDS011;27863;49.440;11.102;2023-03-01T13:49:49;11.07;;;9.30;;
42194;SDS011;27863;49.440;11.102;2023-03-01T13:53:02;9.60;;;8.63;;
42194;SDS011;27863;49.440;11.102;2023-03-01T13:56:08;10.70;;;9.43;;
42194;SDS011;27863;49.440;11.102;2023-03-01T13:59:18;9.77;;;8.77;;
42194;SDS011;27863;49.440;11.102;2023-03-01T14:02:20;9.37;;;8.57;;
42194;SDS011;27863;49.440;11.102;2023-03-01T14:05:20;10.40;;;9.40;;
42194;SDS011;27863;49.440;11.102;2023-03-01T14:08:22;9.83;;;8.63;;
42194;SDS011;27863;49.440;11.102;2023-03-01T14:14:54;11.30;;;8.90;;
42194;SDS011;27863;49.440;11.102;2023-03-01T14:21:15;10.77;;;9.77;;
42194;SDS011;27863;49.440;11.102;2023-03-01T14:24:20;11.23;;;9.57;;
42194;SDS011;27863;49.440;11.102;2023-03-01T14:27:21;22.00;;;9.47;;
42194;SDS011;27863;49.440;11.102;2023-03-01T14:30:37;10.67;;;9.60;;
42194;SDS011;27863;49.440;11.102;2023-03-01T14:33:41;12.97;;;9.90;;
42194;SDS011;27863;49.440;11.102;2023-03-01T14:36:42;11.23;;;9.50;;
42194;SDS011;27863;49.440;11.102;2023-03-01T14:39:42;11.33;;;8.63;;
42194;SDS011;27863;49.440;11.102;2023-03-01T14:42:42;11.20;;;9.97;;
42194;SDS011;27863;49.440;11.102;2023-03-01T14:45:48;9.40;;;8.37;;
42194;SDS011;27863;49.440;11.102;2023-03-01T14:48:53;11.80;;;9.77;;
42194;SDS011;27863;49.440;11.102;2023-03-01T14:52:02;9.23;;;8.40;;
42194;SDS011;27863;49.440;11.102;2023-03-01T14:55:09;11.70;;;10.07;;
42194;SDS011;27863;49.440;11.102;2023-03-01T14:58:18;17.87;;;12.97;;
42194;SDS011;27863;49.440;11.102;2023-03-01T15:01:20;19.57;;;9.73;;
42194;SDS011;27863;49.440;11.102;2023-03-01T15:04:24;11.83;;;10.50;;
42194;SDS011;27863;49.440;11.102;2023-03-01T15:07:27;12.47;;;10.40;;
42194;SDS011;27863;49.440;11.102;2023-03-01T15:10:32;9.73;;;8.73;;
42194;SDS011;27863;49.440;11.102;2023-03-01T15:13:35;11.80;;;9.40;;
42194;SDS011;27863;49.440;11.102;2023-03-01T15:16:38;11.97;;;9.40;;
42194;SDS011;27863;49.440;11.102;2023-03-01T15:19:41;13.87;;;9.63;;
42194;SDS011;27863;49.440;11.102;2023-03-01T15:22:43;10.13;;;9.17;;
42194;SDS011;27863;49.440;11.102;2023-03-01T15:25:48;10.03;;;9.07;;
42194;SDS011;27863;49.440;11.102;2023-03-01T15:28:57;11.23;;;9.63;;
42194;SDS011;27863;49.440;11.102;2023-03-01T15:38:51;9.67;;;8.70;;
42194;SDS011;27863;49.440;11.102;2023-03-01T15:41:57;10.37;;;9.20;;
42194;SDS011;27863;49.440;11.102;2023-03-01T15:45:08;9.53;;;8.60;;
42194;SDS011;27863;49.440;11.102;2023-03-01T15:48:18;10.30;;;9.23;;
42194;SDS011;27863;49.440;11.102;2023-03-01T15:51:22;10.90;;;8.33;;
42194;SDS011;27863;49.440;11.102;2023-03-01T15:54:29;11.33;;;10.03;;
42194;SDS011;27863;49.440;11.102;2023-03-01T15:57:29;10.90;;;9.07;;
42194;SDS011;27863;49.440;11.102;2023-03-01T16:00:30;9.87;;;8.43;;
42194;SDS011;27863;49.440;11.102;2023-03-01T16:03:30;9.47;;;8.57;;
42194;SDS011;27863;49.440;11.102;2023-03-01T16:06:31;11.23;;;8.33;;
42194;SDS011;27863;49.440;11.102;2023-03-01T16:09:32;12.13;;;8.60;;
42194;SDS011;27863;49.440;11.102;2023-03-01T16:12:32;15.60;;;10.10;;
42194;SDS011;27863;49.440;11.102;2023-03-01T16:15:33;10.37;;;9.27;;
42194;SDS011;27863;49.440;11.102;2023-03-01T16:18:35;10.23;;;9.07;;
42194;SDS011;27863;49.440;11.102;2023-03-01T16:21:36;11.13;;;9.77;;
42194;SDS011;27863;49.440;11.102;2023-03-01T16:24:37;10.63;;;9.60;;
42194;SDS011;27863;49.440;11.102;2023-03-01T16:27:37;12.30;;;10.20;;
42194;SDS011;27863;49.440;11.102;2023-03-01T16:30:39;11.23;;;9.37;;
42194;SDS011;27863;49.440;11.102;2023-03-01T16:33:40;11.17;;;9.80;;
42194;SDS011;27863;49.440;11.102;2023-03-01T16:36:42;14.53;;;9.57;;
42194;SDS011;27863;49.440;11.102;2023-03-01T16:39:44;10.80;;;9.77;;
42194;SDS011;27863;49.440;11.102;2023-03-01T16:42:44;11.13;;;10.03;;
42194;SDS011;27863;49.440;11.102;2023-03-01T16:45:45;11.87;;;10.63;;
42194;SDS011;27863;49.440;11.102;2023-03-01T16:48:47;10.67;;;9.50;;
42194;SDS011;27863;49.440;11.102;2023-03-01T16:51:57;11.17;;;9.97;;
42194;SDS011;27863;49.440;11.102;2023-03-01T16:54:59;11.70;;;10.03;;
42194;SDS011;27863;49.440;11.102;2023-03-01T16:58:00;11.37;;;10.17;;
42194;SDS011;27863;49.440;11.102;2023-03-01T17:01:07;10.97;;;8.90;;
42194;SDS011;27863;49.440;11.102;2023-03-01T17:04:15;10.90;;;9.80;;
42194;SDS011;27863;49.440;11.102;2023-03-01T17:07:18;12.30;;;11.03;;
42194;SDS011;27863;49.440;11.102;2023-03-01T17:10:18;15.33;;;10.47;;
42194;SDS011;27863;49.440;11.102;2023-03-01T17:13:19;12.40;;;11.03;;
42194;SDS011;27863;49.440;11.102;2023-03-01T17:16:20;12.40;;;9.30;;
42194;SDS011;27863;49.440;11.102;2023-03-01T17:19:21;11.50;;;10.03;;
42194;SDS011;27863;49.440;11.102;2023-03-01T17:22:21;10.87;;;9.80;;
42194;SDS011;27863;49.440;11.102;2023-03-01T17:25:22;11.37;;;10.27;;
42194;SDS011;27863;49.440;11.102;2023-03-01T17:28:23;10.47;;;9.40;;
42194;SDS011;27863;49.440;11.102;2023-03-01T17:31:25;11.80;;;10.60;;
42194;SDS011;27863;49.440;11.102;2023-03-01T17:34:26;11.90;;;10.73;;
42194;SDS011;27863;49.440;11.102;2023-03-01T17:37:26;10.93;;;9.93;;
42194;SDS011;27863;49.440;11.102;2023-03-01T17:40:28;12.17;;;9.87;;
42194;SDS011;27863;49.440;11.102;2023-03-01T17:43:30;11.53;;;10.33;;
42194;SDS011;27863;49.440;11.102;2023-03-01T17:46:30;10.43;;;9.40;;
42194;SDS011;27863;49.440;11.102;2023-03-01T17:49:31;12.87;;;11.57;;
42194;SDS011;27863;49.440;11.102;2023-03-01T17:52:33;12.00;;;10.77;;
42194;SDS011;27863;49.440;11.102;2023-03-01T17:55:41;13.60;;;11.03;;
42194;SDS011;27863;49.440;11.102;2023-03-01T17:58:45;12.93;;;10.60;;
42194;SDS011;27863;49.440;11.102;2023-03-01T18:01:47;13.50;;;12.10;;
42194;SDS011;27863;49.440;11.102;2023-03-01T18:04:47;18.13;;;11.33;;
42194;SDS011;27863;49.440;11.102;2023-03-01T18:07:49;16.43;;;13.53;;
42194;SDS011;27863;49.440;11.102;2023-03-01T18:10:57;16.17;;;12.07;;
42194;SDS011;27863;49.440;11.102;2023-03-01T18:13:58;16.07;;;14.37;;
42194;SDS011;27863;49.440;11.102;2023-03-01T18:16:59;14.67;;;13.30;;
42194;SDS011;27863;49.440;11.102;2023-03-01T18:20:03;14.80;;;13.27;;
42194;SDS011;27863;49.440;11.102;2023-03-01T18:23:08;22.17;;;16.90;;
42194;SDS011;27863;49.440;11.102;2023-03-01T18:26:10;15.70;;;14.03;;
42194;SDS011;27863;49.440;11.102;2023-03-01T18:29:15;15.57;;;14.07;;
42194;SDS011;27863;49.440;11.102;2023-03-01T18:32:15;15.53;;;13.93;;
42194;SDS011;27863;49.440;11.102;2023-03-01T18:35:16;17.93;;;14.60;;
42194;SDS011;27863;49.440;11.102;2023-03-01T18:38:17;20.77;;;14.93;;
42194;SDS011;27863;49.440;11.102;2023-03-01T18:41:17;16.67;;;14.93;;
42194;SDS011;27863;49.440;11.102;2023-03-01T18:44:22;15.47;;;13.77;;
42194;SDS011;27863;49.440;11.102;2023-03-01T18:47:22;20.40;;;15.70;;
42194;SDS011;27863;49.440;11.102;2023-03-01T18:50:23;16.20;;;14.50;;
42194;SDS011;27863;49.440;11.102;2023-03-01T18:53:23;17.20;;;15.23;;
42194;SDS011;27863;49.440;11.102;2023-03-01T18:56:24;17.40;;;15.57;;
42194;SDS011;27863;49.440;11.102;2023-03-01T18:59:26;18.10;;;15.93;;
42194;SDS011;27863;49.440;11.102;2023-03-01T19:02:26;17.27;;;15.40;;
42194;SDS011;27863;49.440;11.102;2023-03-01T19:05:27;20.40;;;17.87;;
42194;SDS011;27863;49.440;11.102;2023-03-01T19:08:28;18.07;;;15.17;;
42194;SDS011;27863;49.440;11.102;2023-03-01T19:11:30;17.70;;;15.87;;
42194;SDS011;27863;49.440;11.102;2023-03-01T19:14:32;26.77;;;19.10;;
42194;SDS011;27863;49.440;11.102;2023-03-01T19:17:33;18.23;;;16.43;;
42194;SDS011;27863;49.440;11.102;2023-03-01T19:20:34;16.80;;;15.10;;
42194;SDS011;27863;49.440;11.102;2023-03-01T19:23:35;17.10;;;15.33;;
42194;SDS011;27863;49.440;11.102;2023-03-01T19:26:37;17.37;;;15.47;;